createdAt,value
2024-04-30T04:15:05.012Z,1014.30
2024-04-30T04:16:05.128Z,1014.28
2024-04-30T04:17:05.281Z,1014.27
2024-04-30T04:18:05.485Z,1014.24
2024-04-30T04:19:05.555Z,1014.19
2024-04-30T04:20:05.663Z,1014.27
2024-04-30T04:21:05.792Z,1014.26
2024-04-30T04:22:05.978Z,1014.24
2024-04-30T04:23:06.091Z,1014.24
2024-04-30T04:24:06.200Z,1014.19
2024-04-30T04:25:06.397Z,1014.23
2024-04-30T04:26:06.474Z,1014.24
2024-04-30T04:27:06.668Z,1014.28
2024-04-30T04:28:06.794Z,1014.25
2024-04-30T04:29:06.892Z,1014.23
2024-04-30T04:30:07.049Z,1014.27
2024-04-30T04:31:07.184Z,1014.24
2024-04-30T04:32:07.535Z,1014.25
2024-04-30T04:33:07.491Z,1014.21
2024-04-30T04:34:07.594Z,1014.22
2024-04-30T04:35:07.689Z,1014.18
2024-04-30T04:36:07.828Z,1014.23
2024-04-30T04:37:08.029Z,1014.23
2024-04-30T04:38:08.075Z,1014.18
2024-04-30T04:39:08.251Z,1014.17
2024-04-30T04:40:08.549Z,1014.15
2024-04-30T04:41:08.518Z,1014.16
2024-04-30T04:42:08.687Z,1014.14
2024-04-30T04:43:09.874Z,1014.15
2024-04-30T04:44:09.827Z,1014.15
2024-04-30T04:45:09.044Z,1014.17
2024-04-30T04:46:09.212Z,1014.18
2024-04-30T04:47:09.492Z,1014.14
2024-04-30T04:48:09.473Z,1014.16
2024-04-30T04:49:09.586Z,1014.15
2024-04-30T04:50:09.658Z,1014.17
2024-04-30T04:51:09.788Z,1014.14
2024-04-30T04:52:09.947Z,1014.10
2024-04-30T04:53:10.146Z,1014.08
2024-04-30T04:54:10.167Z,1014.12
2024-04-30T04:55:10.303Z,1014.10
2024-04-30T04:56:10.435Z,1014.09
2024-04-30T04:57:10.581Z,1014.09
2024-04-30T04:58:10.771Z,1014.05
2024-04-30T04:59:10.857Z,1014.07
2024-04-30T05:00:10.980Z,1014.04
2024-04-30T05:01:12.740Z,1014.02
2024-04-30T05:02:11.358Z,1014.05
2024-04-30T05:03:11.429Z,1014.01
2024-04-30T05:04:11.712Z,1013.97
2024-04-30T05:05:11.646Z,1013.97
2024-04-30T05:06:11.775Z,1013.96
2024-04-30T05:07:11.951Z,1013.94
2024-04-30T05:08:12.050Z,1013.93
2024-04-30T05:09:12.242Z,1013.94
2024-04-30T05:10:12.357Z,1013.90
2024-04-30T05:11:12.460Z,1013.91
2024-04-30T05:12:12.579Z,1013.95
2024-04-30T05:13:13.691Z,1013.98
2024-04-30T05:14:12.852Z,1013.97
2024-04-30T05:15:12.964Z,1013.97
2024-04-30T05:16:13.135Z,1013.99
2024-04-30T05:17:13.253Z,1013.99
2024-04-30T05:18:13.375Z,1014.02
2024-04-30T05:19:13.462Z,1013.99
2024-04-30T05:20:13.597Z,1013.98
2024-04-30T05:21:14.659Z,1014.04
2024-04-30T05:22:13.897Z,1013.94
2024-04-30T05:23:14.511Z,1013.96
2024-04-30T05:24:14.106Z,1013.95
2024-04-30T05:25:14.235Z,1013.97
2024-04-30T05:26:15.288Z,1013.92
2024-04-30T05:27:14.444Z,1013.96
2024-04-30T05:28:14.583Z,1013.95
2024-04-30T05:29:14.741Z,1013.91
2024-04-30T05:30:14.821Z,1013.93
2024-04-30T05:31:14.967Z,1013.86
2024-04-30T05:32:15.039Z,1013.88
2024-04-30T05:33:15.315Z,1013.88
2024-04-30T05:34:15.321Z,1013.86
2024-04-30T05:35:15.420Z,1013.83
2024-04-30T05:36:15.510Z,1013.84
2024-04-30T05:37:15.731Z,1013.79
2024-04-30T05:38:15.770Z,1013.87
2024-04-30T05:39:15.902Z,1013.80
2024-04-30T05:40:16.055Z,1013.84
2024-04-30T05:41:16.147Z,1013.84
2024-04-30T05:42:16.262Z,1013.85
2024-04-30T05:43:16.514Z,1013.91
2024-04-30T05:44:16.608Z,1013.90
2024-04-30T05:45:16.657Z,1013.87
2024-04-30T05:46:16.928Z,1013.86
2024-04-30T05:47:16.916Z,1013.84
2024-04-30T05:48:17.051Z,1013.91
2024-04-30T05:49:17.200Z,1013.95
2024-04-30T05:50:18.122Z,1013.98
2024-04-30T05:51:17.548Z,1013.93
2024-04-30T05:52:17.686Z,1013.93
2024-04-30T05:53:17.720Z,1013.94
2024-04-30T05:54:17.866Z,1013.93
2024-04-30T05:55:18.021Z,1013.96
2024-04-30T05:56:18.099Z,1013.95
2024-04-30T05:57:18.237Z,1013.95
2024-04-30T05:58:18.778Z,1013.97
2024-04-30T05:59:19.087Z,1013.95
2024-04-30T06:00:18.886Z,1013.92
2024-04-30T06:01:18.998Z,1013.90
2024-04-30T06:02:19.799Z,1013.91
2024-04-30T06:03:19.154Z,1013.91
2024-04-30T06:04:20.268Z,1013.93
2024-04-30T06:05:20.491Z,1013.90
2024-04-30T06:06:19.494Z,1013.88
2024-04-30T06:07:20.404Z,1013.90
2024-04-30T06:08:19.694Z,1013.86
2024-04-30T06:09:19.853Z,1013.83
2024-04-30T06:10:20.900Z,1013.85
2024-04-30T06:11:20.236Z,1013.82
2024-04-30T06:12:20.250Z,1013.85
2024-04-30T06:13:21.314Z,1013.86
2024-04-30T06:14:23.258Z,1013.86
2024-04-30T06:15:20.666Z,1013.85
2024-04-30T06:16:21.775Z,1013.83
2024-04-30T06:17:21.107Z,1013.83
2024-04-30T06:18:21.897Z,1013.86
2024-04-30T06:19:21.204Z,1013.80
2024-04-30T06:20:22.172Z,1013.79
2024-04-30T06:21:30.894Z,1013.79
2024-04-30T06:22:22.605Z,1013.79
2024-04-30T06:23:21.630Z,1013.86
2024-04-30T06:24:23.574Z,1013.86
2024-04-30T06:25:22.789Z,1013.88
2024-04-30T06:26:22.113Z,1013.82
2024-04-30T06:27:22.212Z,1013.86
2024-04-30T06:28:22.581Z,1013.81
2024-04-30T06:29:24.886Z,1013.86
2024-04-30T06:30:23.503Z,1013.81
2024-04-30T06:31:23.473Z,1013.82
2024-04-30T06:32:23.760Z,1013.80
2024-04-30T06:33:23.003Z,1013.78
2024-04-30T06:34:23.055Z,1013.77
2024-04-30T06:35:25.645Z,1013.76
2024-04-30T06:36:23.286Z,1013.73
2024-04-30T06:37:23.796Z,1013.76
2024-04-30T06:38:24.547Z,1013.77
2024-04-30T06:39:23.725Z,1013.77
2024-04-30T06:40:27.300Z,1013.78
2024-04-30T06:41:25.036Z,1013.73
2024-04-30T06:42:24.932Z,1013.77
2024-04-30T06:43:24.309Z,1013.74
2024-04-30T06:44:25.234Z,1013.76
2024-04-30T06:45:24.678Z,1013.80
2024-04-30T06:46:24.719Z,1013.74
2024-04-30T06:47:26.392Z,1013.75
2024-04-30T06:48:25.103Z,1013.78
2024-04-30T06:49:26.723Z,1013.76
2024-04-30T06:50:25.296Z,1013.75
2024-04-30T06:51:25.442Z,1013.70
2024-04-30T06:52:25.525Z,1013.68
2024-04-30T06:53:26.638Z,1013.69
2024-04-30T06:54:25.807Z,1013.65
2024-04-30T06:55:26.804Z,1013.62
2024-04-30T06:56:26.997Z,1013.64
2024-04-30T06:57:28.083Z,1013.62
2024-04-30T06:58:27.241Z,1013.64
2024-04-30T06:59:28.906Z,1013.65
2024-04-30T07:00:27.982Z,1013.63
2024-04-30T07:01:27.614Z,1013.61
2024-04-30T07:02:26.795Z,1013.63
2024-04-30T07:03:26.950Z,1013.58
2024-04-30T07:04:27.060Z,1013.56
2024-04-30T07:05:27.241Z,1013.56
2024-04-30T07:06:27.318Z,1013.57
2024-04-30T07:07:28.699Z,1013.55
2024-04-30T07:08:27.733Z,1013.55
2024-04-30T07:09:27.833Z,1013.52
2024-04-30T07:10:28.046Z,1013.50
2024-04-30T07:11:28.038Z,1013.49
2024-04-30T07:12:28.205Z,1013.47
2024-04-30T07:13:28.347Z,1013.42
2024-04-30T07:14:28.516Z,1013.44
2024-04-30T07:15:29.478Z,1013.41
2024-04-30T07:16:28.747Z,1013.41
2024-04-30T07:17:28.872Z,1013.36
2024-04-30T07:18:29.088Z,1013.36
2024-04-30T07:19:29.083Z,1013.40
2024-04-30T07:20:30.095Z,1013.35
2024-04-30T07:21:29.270Z,1013.35
2024-04-30T07:22:29.500Z,1013.39
2024-04-30T07:23:29.536Z,1013.39
2024-04-30T07:24:29.715Z,1013.38
2024-04-30T07:25:32.313Z,1013.34
2024-04-30T07:26:30.877Z,1013.36
2024-04-30T07:27:30.993Z,1013.39
2024-04-30T07:28:30.350Z,1013.34
2024-04-30T07:29:30.359Z,1013.35
2024-04-30T07:30:32.373Z,1013.31
2024-04-30T07:31:30.596Z,1013.29
2024-04-30T07:32:31.488Z,1013.34
2024-04-30T07:33:31.599Z,1013.29
2024-04-30T07:34:31.772Z,1013.33
2024-04-30T07:35:31.034Z,1013.33
2024-04-30T07:36:31.270Z,1013.33
2024-04-30T07:37:32.259Z,1013.32
2024-04-30T07:38:31.461Z,1013.31
2024-04-30T07:39:31.614Z,1013.26
2024-04-30T07:40:32.402Z,1013.31
2024-04-30T07:41:32.576Z,1013.33
2024-04-30T07:42:32.743Z,1013.28
2024-04-30T07:43:32.228Z,1013.33
2024-04-30T07:44:32.537Z,1013.32
2024-04-30T07:45:32.405Z,1013.33
2024-04-30T07:46:32.680Z,1013.30
2024-04-30T07:47:33.745Z,1013.33
2024-04-30T07:48:33.712Z,1013.35
2024-04-30T07:49:32.974Z,1013.32
2024-04-30T07:50:32.968Z,1013.29
2024-04-30T07:51:33.178Z,1013.26
2024-04-30T07:52:33.329Z,1013.28
2024-04-30T07:53:33.374Z,1013.30
2024-04-30T07:54:33.503Z,1013.28
2024-04-30T07:55:33.719Z,1013.28
2024-04-30T07:56:33.780Z,1013.24
2024-04-30T07:57:34.352Z,1013.26
2024-04-30T07:58:34.875Z,1013.23
2024-04-30T07:59:35.626Z,1013.26
2024-04-30T08:00:34.410Z,1013.24
2024-04-30T08:01:34.461Z,1013.21
2024-04-30T08:02:35.489Z,1013.23
2024-04-30T08:03:34.633Z,1013.23
2024-04-30T08:04:36.195Z,1013.20
2024-04-30T08:05:42.659Z,1013.18
2024-04-30T08:06:36.813Z,1013.18
2024-04-30T08:07:36.016Z,1013.18
2024-04-30T08:08:35.258Z,1013.20
2024-04-30T08:09:37.299Z,1013.17
2024-04-30T08:10:38.037Z,1013.15
2024-04-30T08:11:35.702Z,1013.14
2024-04-30T08:12:36.511Z,1013.13
2024-04-30T08:13:35.982Z,1013.11
2024-04-30T08:14:36.666Z,1013.09
2024-04-30T08:15:37.052Z,1013.05
2024-04-30T08:16:36.949Z,1013.09
2024-04-30T08:17:36.695Z,1013.11
2024-04-30T08:18:38.079Z,1013.08
2024-04-30T08:19:38.770Z,1013.03
2024-04-30T08:20:36.838Z,1013.07
2024-04-30T08:21:37.038Z,1013.09
2024-04-30T08:22:37.408Z,1013.08
2024-04-30T08:23:38.031Z,1013.07
2024-04-30T08:24:38.195Z,1013.07
2024-04-30T08:25:37.638Z,1013.06
2024-04-30T08:26:37.746Z,1013.08
2024-04-30T08:27:39.193Z,1013.07
2024-04-30T08:28:37.977Z,1013.08
2024-04-30T08:29:40.499Z,1013.04
2024-04-30T08:30:38.902Z,1013.05
2024-04-30T08:31:39.367Z,1013.05
2024-04-30T08:32:38.402Z,1013.04
2024-04-30T08:33:38.655Z,1013.00
2024-04-30T08:34:41.075Z,1012.97
2024-04-30T08:35:39.670Z,1013.02
2024-04-30T08:36:39.814Z,1013.03
2024-04-30T08:37:47.517Z,1013.06
2024-04-30T08:38:40.126Z,1013.03
2024-04-30T08:39:39.196Z,1013.08
2024-04-30T08:40:40.398Z,1013.08
2024-04-30T08:41:39.575Z,1013.10
2024-04-30T08:42:39.670Z,1013.06
2024-04-30T08:43:40.709Z,1013.07
2024-04-30T08:44:39.964Z,1013.09
2024-04-30T08:45:39.960Z,1013.06
2024-04-30T08:46:41.070Z,1013.06
2024-04-30T08:47:41.029Z,1013.06
2024-04-30T08:48:42.803Z,1013.05
2024-04-30T08:49:46.906Z,1013.02
2024-04-30T08:50:41.700Z,1013.05
2024-04-30T08:51:41.714Z,1013.07
2024-04-30T08:52:40.971Z,1013.02
2024-04-30T08:53:41.787Z,1013.03
2024-04-30T08:54:41.967Z,1013.00
2024-04-30T08:55:43.231Z,1012.98
2024-04-30T08:56:42.396Z,1013.02
2024-04-30T08:57:41.501Z,1013.02
2024-04-30T08:58:41.779Z,1013.01
2024-04-30T08:59:44.440Z,1013.01
2024-04-30T09:00:42.892Z,1012.99
2024-04-30T09:01:43.049Z,1012.97
2024-04-30T09:02:42.237Z,1012.99
2024-04-30T09:03:44.833Z,1013.00
2024-04-30T09:04:43.334Z,1012.98
2024-04-30T09:05:44.951Z,1012.99
2024-04-30T09:06:42.790Z,1013.00
2024-04-30T09:07:45.328Z,1013.03
2024-04-30T09:08:45.900Z,1013.03
2024-04-30T09:09:43.954Z,1013.01
2024-04-30T09:10:45.705Z,1012.96
2024-04-30T09:11:45.871Z,1012.96
2024-04-30T09:12:44.336Z,1012.95
2024-04-30T09:13:44.584Z,1012.92
2024-04-30T09:14:44.628Z,1012.90
2024-04-30T09:15:44.791Z,1012.91
2024-04-30T09:16:45.018Z,1012.87
2024-04-30T09:17:45.210Z,1012.88
2024-04-30T09:18:45.000Z,1012.86
2024-04-30T09:19:46.984Z,1012.87
2024-04-30T09:20:44.530Z,1012.90
2024-04-30T09:21:48.250Z,1012.89
2024-04-30T09:22:46.825Z,1012.90
2024-04-30T09:23:47.328Z,1012.90
2024-04-30T09:24:45.019Z,1012.91
2024-04-30T09:25:46.655Z,1012.92
2024-04-30T09:26:46.035Z,1012.88
2024-04-30T09:27:46.181Z,1012.89
2024-04-30T09:28:46.373Z,1012.82
2024-04-30T09:29:46.505Z,1012.88
2024-04-30T09:30:45.792Z,1012.84
2024-04-30T09:31:45.912Z,1012.84
2024-04-30T09:32:46.056Z,1012.83
2024-04-30T09:33:46.283Z,1012.80
2024-04-30T09:34:46.316Z,1012.78
2024-04-30T09:35:46.593Z,1012.79
2024-04-30T09:36:46.503Z,1012.75
2024-04-30T09:37:46.663Z,1012.76
2024-04-30T09:38:46.779Z,1012.78
2024-04-30T09:39:46.888Z,1012.75
2024-04-30T09:40:47.093Z,1012.70
2024-04-30T09:41:47.169Z,1012.75
2024-04-30T09:42:47.983Z,1012.74
2024-04-30T09:43:48.407Z,1012.72
2024-04-30T09:44:47.563Z,1012.68
2024-04-30T09:45:47.733Z,1012.64
2024-04-30T09:46:48.201Z,1012.67
2024-04-30T09:47:47.931Z,1012.65
2024-04-30T09:48:48.422Z,1012.62
2024-04-30T09:49:48.723Z,1012.59
2024-04-30T09:50:50.124Z,1012.59
2024-04-30T09:51:50.279Z,1012.55
2024-04-30T09:52:49.974Z,1012.54
2024-04-30T09:53:48.642Z,1012.45
2024-04-30T09:54:49.683Z,1012.48
2024-04-30T09:55:49.928Z,1012.48
2024-04-30T09:56:48.988Z,1012.51
2024-04-30T09:57:49.143Z,1012.49
2024-04-30T09:58:50.243Z,1012.45
2024-04-30T09:59:50.365Z,1012.50
2024-04-30T10:00:50.279Z,1012.48
2024-04-30T10:01:52.192Z,1012.48
2024-04-30T10:02:49.812Z,1012.42
2024-04-30T10:03:49.958Z,1012.42
2024-04-30T10:04:50.227Z,1012.40
2024-04-30T10:05:50.355Z,1012.38
2024-04-30T10:06:52.338Z,1012.38
2024-04-30T10:07:50.578Z,1012.37
2024-04-30T10:08:50.545Z,1012.35
2024-04-30T10:09:51.595Z,1012.34
2024-04-30T10:10:51.664Z,1012.30
2024-04-30T10:11:51.552Z,1012.32
2024-04-30T10:12:53.479Z,1012.25
2024-04-30T10:13:51.224Z,1012.23
2024-04-30T10:14:52.185Z,1012.20
2024-04-30T10:15:51.448Z,1012.20
2024-04-30T10:16:52.403Z,1012.16
2024-04-30T10:17:51.788Z,1012.16
2024-04-30T10:30:05.972Z,1012.02
2024-04-30T10:30:30.767Z,1012.01
2024-04-30T10:31:30.155Z,1011.98
2024-04-30T10:32:30.235Z,1011.97
2024-04-30T10:33:33.320Z,1011.98
2024-04-30T10:34:31.099Z,1011.97
2024-04-30T10:35:30.344Z,1011.95
2024-04-30T10:36:30.409Z,1011.89
2024-04-30T10:37:30.760Z,1011.87
2024-04-30T10:38:30.683Z,1011.85
2024-04-30T10:39:31.887Z,1011.84
2024-04-30T10:40:31.823Z,1011.85
2024-04-30T10:41:31.960Z,1011.84
2024-04-30T10:42:31.854Z,1011.83
2024-04-30T10:43:32.404Z,1011.85
2024-04-30T10:44:31.478Z,1011.80
2024-04-30T10:45:31.565Z,1011.77
2024-04-30T10:46:33.316Z,1011.76
2024-04-30T10:47:31.782Z,1011.76
2024-04-30T10:48:32.271Z,1011.76
2024-04-30T10:49:32.118Z,1011.76
2024-04-30T10:50:32.103Z,1011.78
2024-04-30T10:51:33.134Z,1011.79
2024-04-30T10:52:32.348Z,1011.75
2024-04-30T10:53:33.207Z,1011.78
2024-04-30T10:54:35.607Z,1011.76
2024-04-30T10:55:33.511Z,1011.74
2024-04-30T10:56:32.876Z,1011.78
2024-04-30T10:57:33.400Z,1011.70
2024-04-30T10:58:33.354Z,1011.71
2024-04-30T10:59:34.065Z,1011.71
2024-04-30T11:00:33.429Z,1011.66
2024-04-30T11:01:34.702Z,1011.69
2024-04-30T11:02:33.749Z,1011.68
2024-04-30T11:03:34.874Z,1011.64
2024-04-30T11:04:34.148Z,1011.62
2024-04-30T11:05:34.178Z,1011.59
2024-04-30T11:06:34.294Z,1011.58
2024-04-30T11:07:34.391Z,1011.54
2024-04-30T11:08:34.443Z,1011.53
2024-04-30T11:09:42.496Z,1011.50
2024-04-30T11:10:35.056Z,1011.48
2024-04-30T11:11:36.493Z,1011.50
2024-04-30T11:12:37.888Z,1011.45
2024-04-30T11:13:35.288Z,1011.48
2024-04-30T11:14:35.884Z,1011.40
2024-04-30T11:15:35.650Z,1011.42
2024-04-30T11:16:35.873Z,1011.43
2024-04-30T11:17:35.700Z,1011.44
2024-04-30T11:18:35.911Z,1011.43
2024-04-30T11:20:52.189Z,1011.34
2024-04-30T11:21:55.767Z,1011.37
2024-04-30T11:22:53.341Z,1011.28
2024-04-30T11:23:53.494Z,1011.25
2024-04-30T11:24:52.720Z,1011.28
2024-04-30T11:25:52.837Z,1011.28
2024-04-30T11:26:52.930Z,1011.22
2024-04-30T11:27:53.086Z,1011.24
2024-04-30T11:29:03.516Z,1011.22
2024-04-30T11:29:54.317Z,1011.21
2024-04-30T11:30:53.505Z,1011.18
2024-04-30T11:31:54.247Z,1011.17
2024-04-30T11:32:54.165Z,1011.15
2024-04-30T11:33:53.847Z,1011.18
2024-04-30T11:34:53.862Z,1011.18
2024-04-30T11:35:54.646Z,1011.16
2024-04-30T11:36:54.109Z,1011.15
2024-04-30T11:37:54.295Z,1011.18
2024-04-30T11:38:54.368Z,1011.20
2024-04-30T11:39:54.495Z,1011.20
2024-04-30T11:40:54.635Z,1011.15
2024-04-30T11:42:01.892Z,1011.21
2024-04-30T11:42:56.792Z,1011.19
2024-04-30T11:43:56.430Z,1011.22
2024-04-30T11:44:57.086Z,1011.19
2024-04-30T11:45:55.258Z,1011.19
2024-04-30T11:46:55.392Z,1011.19
2024-04-30T11:47:55.545Z,1011.16
2024-04-30T11:48:55.654Z,1011.16
2024-04-30T11:49:55.872Z,1011.16
2024-04-30T11:50:56.789Z,1011.17
2024-04-30T11:51:56.032Z,1011.19
2024-04-30T11:52:56.377Z,1011.19
2024-04-30T11:53:58.706Z,1011.17
2024-04-30T11:54:57.174Z,1011.18
2024-04-30T11:55:56.576Z,1011.19
2024-04-30T11:56:57.727Z,1011.19
2024-04-30T11:57:56.808Z,1011.20
2024-04-30T11:58:56.966Z,1011.22
2024-04-30T11:59:57.034Z,1011.24
2024-04-30T12:00:57.211Z,1011.21
2024-04-30T12:01:57.404Z,1011.24
2024-04-30T12:02:57.402Z,1011.27
2024-04-30T12:03:58.437Z,1011.30
2024-04-30T12:04:58.820Z,1011.37
2024-04-30T12:05:57.815Z,1011.30
2024-04-30T12:06:57.820Z,1011.27
2024-04-30T12:07:57.948Z,1011.20
2024-04-30T12:08:58.124Z,1011.17
2024-04-30T12:09:59.139Z,1011.17
2024-04-30T12:10:58.460Z,1011.17
2024-04-30T12:11:58.491Z,1011.13
2024-04-30T12:12:59.282Z,1011.09
2024-04-30T12:13:59.774Z,1011.02
2024-04-30T12:14:58.954Z,1011.01
2024-04-30T12:15:59.167Z,1011.00
2024-04-30T12:16:59.425Z,1010.96
2024-04-30T12:17:59.911Z,1010.98
2024-04-30T12:18:59.421Z,1010.90
2024-04-30T12:20:00.432Z,1010.91
2024-04-30T12:21:00.561Z,1010.89
2024-04-30T12:22:01.744Z,1010.86
2024-04-30T12:23:01.916Z,1010.90
2024-04-30T12:24:02.527Z,1010.88
2024-04-30T12:25:00.962Z,1010.89
2024-04-30T12:26:01.279Z,1010.80
2024-04-30T12:27:00.545Z,1010.84
2024-04-30T12:28:01.435Z,1010.78
2024-04-30T12:29:00.826Z,1010.78
2024-04-30T12:30:00.932Z,1010.77
2024-04-30T12:31:01.906Z,1010.70
2024-04-30T12:32:01.121Z,1010.74
2024-04-30T12:33:02.048Z,1010.74
2024-04-30T12:34:02.182Z,1010.75
2024-04-30T12:35:02.301Z,1010.75
2024-04-30T12:36:02.460Z,1010.73
2024-04-30T12:37:01.877Z,1010.76
2024-04-30T12:38:01.797Z,1010.76
2024-04-30T12:39:02.058Z,1010.73
2024-04-30T12:40:05.890Z,1010.68
2024-04-30T12:41:05.805Z,1010.71
2024-04-30T12:42:02.414Z,1010.74
2024-04-30T12:43:02.582Z,1010.71
2024-04-30T12:44:03.824Z,1010.69
2024-04-30T12:45:02.909Z,1010.71
2024-04-30T12:46:05.350Z,1010.68
2024-04-30T12:47:03.097Z,1010.67
2024-04-30T12:48:03.264Z,1010.66
2024-04-30T12:49:03.432Z,1010.64
2024-04-30T12:50:03.424Z,1010.63
2024-04-30T12:51:05.970Z,1010.52
2024-04-30T12:52:03.754Z,1010.61
2024-04-30T12:53:05.736Z,1010.58
2024-04-30T12:54:03.923Z,1010.49
2024-04-30T12:55:04.962Z,1010.54
2024-04-30T12:56:04.160Z,1010.50
2024-04-30T12:57:05.258Z,1010.46
2024-04-30T12:58:04.430Z,1010.46
2024-04-30T12:59:06.963Z,1010.45
2024-04-30T13:00:04.659Z,1010.43
2024-04-30T13:01:07.369Z,1010.46
2024-04-30T13:02:04.997Z,1010.46
2024-04-30T13:03:06.107Z,1010.44
2024-04-30T13:04:06.915Z,1010.41
2024-04-30T13:05:05.529Z,1010.38
2024-04-30T13:06:05.419Z,1010.39
2024-04-30T13:07:06.604Z,1010.37
2024-04-30T13:08:08.174Z,1010.33
2024-04-30T13:09:06.718Z,1010.33
2024-04-30T13:10:06.175Z,1010.31
2024-04-30T13:11:07.163Z,1010.27
2024-04-30T13:12:08.644Z,1010.24
2024-04-30T13:13:06.521Z,1010.18
2024-04-30T13:14:06.499Z,1010.17
2024-04-30T13:15:06.630Z,1010.17
2024-04-30T13:16:07.703Z,1010.15
2024-04-30T13:17:06.849Z,1010.15
2024-04-30T13:18:08.939Z,1010.12
2024-04-30T13:19:07.176Z,1010.09
2024-04-30T13:20:07.239Z,1010.09
2024-04-30T13:21:08.313Z,1010.09
2024-04-30T13:22:07.575Z,1010.05
2024-04-30T13:23:07.606Z,1010.05
2024-04-30T13:24:07.682Z,1010.03
2024-04-30T13:25:07.858Z,1010.09
2024-04-30T13:26:08.000Z,1010.05
2024-04-30T13:27:12.232Z,1010.06
2024-04-30T13:28:09.032Z,1010.03
2024-04-30T13:29:09.139Z,1010.00
2024-04-30T13:30:08.430Z,1010.00
2024-04-30T13:31:09.537Z,1010.01
2024-04-30T13:32:08.787Z,1009.95
2024-04-30T13:33:09.627Z,1010.02
2024-04-30T13:34:09.720Z,1010.00
2024-04-30T13:35:09.840Z,1009.97
2024-04-30T13:36:09.992Z,1009.94
2024-04-30T13:37:11.335Z,1009.93
2024-04-30T13:38:09.464Z,1009.90
2024-04-30T13:39:10.482Z,1009.90
2024-04-30T13:40:10.679Z,1009.80
2024-04-30T13:41:10.027Z,1009.87
2024-04-30T13:42:10.705Z,1009.82
2024-04-30T13:43:10.882Z,1009.81
2024-04-30T13:44:11.026Z,1009.88
2024-04-30T13:45:11.210Z,1009.83
2024-04-30T13:46:11.374Z,1009.82
2024-04-30T13:47:11.516Z,1009.76
2024-04-30T13:48:11.495Z,1009.75
2024-04-30T13:49:11.662Z,1009.74
2024-04-30T13:50:10.936Z,1009.75
2024-04-30T13:51:11.100Z,1009.77
2024-04-30T13:52:11.210Z,1009.71
2024-04-30T13:53:12.224Z,1009.74
2024-04-30T13:54:11.440Z,1009.69
2024-04-30T13:55:12.324Z,1009.68
2024-04-30T13:56:12.483Z,1009.65
2024-04-30T13:57:12.071Z,1009.65
2024-04-30T13:58:12.059Z,1009.61
2024-04-30T13:59:12.922Z,1009.60
2024-04-30T14:00:12.191Z,1009.59
2024-04-30T14:01:12.331Z,1009.59
2024-04-30T14:02:12.531Z,1009.60
2024-04-30T14:03:12.568Z,1009.58
2024-04-30T14:04:12.805Z,1009.62
2024-04-30T14:05:12.800Z,1009.58
2024-04-30T14:06:12.914Z,1009.55
2024-04-30T14:07:13.076Z,1009.60
2024-04-30T14:08:13.178Z,1009.55
2024-04-30T14:09:13.266Z,1009.52
2024-04-30T14:10:13.485Z,1009.56
2024-04-30T14:11:14.366Z,1009.51
2024-04-30T14:12:13.662Z,1009.45
2024-04-30T14:13:13.821Z,1009.50
2024-04-30T14:14:13.902Z,1009.43
2024-04-30T14:15:14.047Z,1009.45
2024-04-30T14:16:14.769Z,1009.41
2024-04-30T14:17:14.329Z,1009.45
2024-04-30T14:18:14.466Z,1009.45
2024-04-30T14:19:15.541Z,1009.41
2024-04-30T14:20:14.713Z,1009.49
2024-04-30T14:21:14.812Z,1009.44
2024-04-30T14:22:14.979Z,1009.43
2024-04-30T14:23:15.045Z,1009.41
2024-04-30T14:24:15.228Z,1009.37
2024-04-30T14:25:15.302Z,1009.39
2024-04-30T14:26:15.442Z,1009.39
2024-04-30T14:27:15.596Z,1009.36
2024-04-30T14:28:15.722Z,1009.33
2024-04-30T14:29:15.846Z,1009.31
2024-04-30T14:30:15.994Z,1009.30
2024-04-30T14:31:19.024Z,1009.28
2024-04-30T14:32:16.215Z,1009.32
2024-04-30T14:33:16.431Z,1009.28
2024-04-30T14:34:16.523Z,1009.28
2024-04-30T14:35:16.740Z,1009.31
2024-04-30T14:36:16.711Z,1009.29
2024-04-30T14:37:16.891Z,1009.33
2024-04-30T14:38:16.961Z,1009.31
2024-04-30T14:39:17.124Z,1009.27
2024-04-30T14:40:17.263Z,1009.27
2024-04-30T14:41:17.376Z,1009.28
2024-04-30T14:42:17.458Z,1009.29
2024-04-30T14:43:17.694Z,1009.31
2024-04-30T14:44:17.743Z,1009.25
2024-04-30T14:45:17.949Z,1009.31
2024-04-30T14:46:18.079Z,1009.34
2024-04-30T14:47:18.143Z,1009.32
2024-04-30T14:48:18.314Z,1009.31
2024-04-30T14:49:18.466Z,1009.27
2024-04-30T14:50:18.584Z,1009.28
2024-04-30T14:51:18.743Z,1009.26
2024-04-30T14:52:18.953Z,1009.26
2024-04-30T14:53:19.016Z,1009.28
2024-04-30T14:54:19.172Z,1009.28
2024-04-30T14:55:19.304Z,1009.25
2024-04-30T14:56:19.399Z,1009.23
2024-04-30T14:57:19.525Z,1009.29
2024-04-30T14:58:19.730Z,1009.24
2024-04-30T14:59:19.829Z,1009.24
2024-04-30T15:00:19.984Z,1009.24
2024-04-30T15:01:20.173Z,1009.26
2024-04-30T15:02:20.207Z,1009.24
2024-04-30T15:03:20.439Z,1009.21
2024-04-30T15:04:20.627Z,1009.20
2024-04-30T15:05:20.568Z,1009.25
2024-04-30T15:06:20.700Z,1009.23
2024-04-30T15:07:20.900Z,1009.25
2024-04-30T15:08:20.966Z,1009.25
2024-04-30T15:09:21.096Z,1009.22
2024-04-30T15:10:22.193Z,1009.20
2024-04-30T15:11:21.420Z,1009.23
2024-04-30T15:12:21.482Z,1009.23
2024-04-30T15:13:21.563Z,1009.26
2024-04-30T15:14:21.738Z,1009.28
2024-04-30T15:15:21.851Z,1009.26
2024-04-30T15:16:21.992Z,1009.29
2024-04-30T15:17:22.189Z,1009.29
2024-04-30T15:18:22.405Z,1009.26
2024-04-30T15:19:22.469Z,1009.26
2024-04-30T15:20:22.551Z,1009.25
2024-04-30T15:21:22.705Z,1009.29
2024-04-30T15:22:22.927Z,1009.30
2024-04-30T15:23:22.961Z,1009.30
2024-04-30T15:24:23.983Z,1009.29
2024-04-30T15:25:23.244Z,1009.29
2024-04-30T15:26:23.377Z,1009.27
2024-04-30T15:27:23.504Z,1009.32
2024-04-30T15:28:23.635Z,1009.27
2024-04-30T15:29:23.755Z,1009.26
2024-04-30T15:30:23.906Z,1009.29
2024-04-30T15:31:24.298Z,1009.29
2024-04-30T15:32:24.261Z,1009.24
2024-04-30T15:33:24.455Z,1009.22
2024-04-30T15:34:24.549Z,1009.27
2024-04-30T15:35:24.585Z,1009.23
2024-04-30T15:36:24.692Z,1009.24
2024-04-30T15:37:24.941Z,1009.24
2024-04-30T15:38:24.999Z,1009.21
2024-04-30T15:39:25.126Z,1009.20
2024-04-30T15:40:25.356Z,1009.19
2024-04-30T15:41:25.516Z,1009.20
2024-04-30T15:42:25.512Z,1009.19
2024-04-30T15:43:25.714Z,1009.13
2024-04-30T15:44:25.801Z,1009.14
2024-04-30T15:45:25.911Z,1009.17
2024-04-30T15:46:26.123Z,1009.12
2024-04-30T15:47:26.298Z,1009.09
2024-04-30T15:48:26.389Z,1009.07
2024-04-30T15:49:26.426Z,1009.11
2024-04-30T15:50:26.571Z,1009.09
2024-04-30T15:51:26.694Z,1009.04
2024-04-30T15:52:26.894Z,1009.03
2024-04-30T15:53:26.930Z,1009.08
2024-04-30T15:54:27.052Z,1009.03
2024-04-30T15:55:27.204Z,1009.02
2024-04-30T15:56:27.330Z,1008.99
2024-04-30T15:57:27.485Z,1009.00
2024-04-30T15:58:27.662Z,1008.97
2024-04-30T15:59:27.766Z,1009.01
2024-04-30T16:00:27.965Z,1008.99
2024-04-30T16:01:28.075Z,1008.99
2024-04-30T16:02:28.195Z,1009.02
2024-04-30T16:03:28.420Z,1009.02
2024-04-30T16:04:28.541Z,1008.96
2024-04-30T16:05:28.605Z,1008.95
2024-04-30T16:06:28.755Z,1008.97
2024-04-30T16:07:28.853Z,1009.03
2024-04-30T16:08:28.953Z,1008.96
2024-04-30T16:09:29.680Z,1008.95
2024-04-30T16:10:29.228Z,1008.92
2024-04-30T16:11:29.323Z,1008.94
2024-04-30T16:12:29.528Z,1008.92
2024-04-30T16:13:29.755Z,1008.88
2024-04-30T16:14:29.768Z,1008.88
2024-04-30T16:15:29.915Z,1008.88
2024-04-30T16:16:30.095Z,1008.91
2024-04-30T16:28:50.344Z,1008.83
2024-04-30T16:29:50.412Z,1008.83
2024-04-30T16:30:50.589Z,1008.81
2024-04-30T16:31:50.791Z,1008.79
2024-04-30T16:32:50.955Z,1008.80
2024-04-30T16:33:51.036Z,1008.81
2024-04-30T16:34:52.021Z,1008.82
2024-04-30T16:35:52.194Z,1008.82
2024-04-30T16:36:51.368Z,1008.79
2024-04-30T16:37:51.457Z,1008.79
2024-04-30T16:38:51.584Z,1008.77
2024-04-30T16:39:51.748Z,1008.74
2024-04-30T16:40:51.872Z,1008.80
2024-04-30T16:41:51.967Z,1008.77
2024-04-30T16:42:52.149Z,1008.80
2024-04-30T16:43:52.237Z,1008.76
2024-04-30T16:44:56.417Z,1008.81